sensor_id;sensor_type;location;lat;lon;timestamp;P1;durP1;ratioP1;P2;durP2;ratioP2
5971;SDS011;3012;49.944;8.454;2023-09-19T00:00:20;1.20;;;0.80;;
5971;SDS011;3012;49.944;8.454;2023-09-19T00:02:54;4.78;;;1.02;;
5971;SDS011;3012;49.944;8.454;2023-09-19T00:05:23;2.92;;;0.85;;
5971;SDS011;3012;49.944;8.454;2023-09-19T00:07:54;0.70;;;0.70;;
5971;SDS011;3012;49.944;8.454;2023-09-19T00:10:25;8.02;;;0.70;;
5971;SDS011;3012;49.944;8.454;2023-09-19T00:12:55;2.75;;;1.00;;
5971;SDS011;3012;49.944;8.454;2023-09-19T00:15:25;0.65;;;0.65;;
5971;SDS011;3012;49.944;8.454;2023-09-19T00:17:55;1.02;;;0.80;;
5971;SDS011;3012;49.944;8.454;2023-09-19T00:20:23;5.45;;;0.82;;
5971;SDS011;3012;49.944;8.454;2023-09-19T00:22:51;2.17;;;1.08;;
5971;SDS011;3012;49.944;8.454;2023-09-19T00:25:19;0.73;;;0.65;;
5971;SDS011;3012;49.944;8.454;2023-09-19T00:27:48;1.45;;;0.68;;
5971;SDS011;3012;49.944;8.454;2023-09-19T00:30:19;3.95;;;0.68;;
5971;SDS011;3012;49.944;8.454;2023-09-19T00:32:48;1.50;;;0.82;;
5971;SDS011;3012;49.944;8.454;2023-09-19T00:35:21;2.45;;;0.70;;
5971;SDS011;3012;49.944;8.454;2023-09-19T00:37:50;2.17;;;1.08;;
5971;SDS011;3012;49.944;8.454;2023-09-19T00:40:18;8.00;;;0.68;;
5971;SDS011;3012;49.944;8.454;2023-09-19T00:42:48;9.63;;;0.82;;
5971;SDS011;3012;49.944;8.454;2023-09-19T00:45:18;1.92;;;0.80;;
5971;SDS011;3012;49.944;8.454;2023-09-19T00:47:47;2.38;;;0.52;;
5971;SDS011;3012;49.944;8.454;2023-09-19T00:50:17;1.13;;;0.50;;
5971;SDS011;3012;49.944;8.454;2023-09-19T00:52:47;6.13;;;0.73;;
5971;SDS011;3012;49.944;8.454;2023-09-19T00:55:17;1.83;;;0.60;;
5971;SDS011;3012;49.944;8.454;2023-09-19T00:57:46;1.75;;;0.70;;
5971;SDS011;3012;49.944;8.454;2023-09-19T01:00:16;2.83;;;0.57;;
5971;SDS011;3012;49.944;8.454;2023-09-19T01:02:48;3.13;;;0.85;;
5971;SDS011;3012;49.944;8.454;2023-09-19T02:11:16;0.88;;;0.88;;
5971;SDS011;3012;49.944;8.454;2023-09-19T02:13:43;2.22;;;0.80;;
5971;SDS011;3012;49.944;8.454;2023-09-19T02:16:12;1.08;;;0.82;;
5971;SDS011;3012;49.944;8.454;2023-09-19T02:18:40;2.05;;;1.00;;
5971;SDS011;3012;49.944;8.454;2023-09-19T02:21:08;2.40;;;0.82;;
5971;SDS011;3012;49.944;8.454;2023-09-19T02:23:38;1.65;;;0.70;;
5971;SDS011;3012;49.944;8.454;2023-09-19T02:26:07;2.53;;;1.17;;
5971;SDS011;3012;49.944;8.454;2023-09-19T02:28:37;1.02;;;1.02;;
5971;SDS011;3012;49.944;8.454;2023-09-19T02:31:05;2.15;;;0.73;;
5971;SDS011;3012;49.944;8.454;2023-09-19T02:33:33;3.70;;;1.00;;
5971;SDS011;3012;49.944;8.454;2023-09-19T02:36:02;2.58;;;1.48;;
5971;SDS011;3012;49.944;8.454;2023-09-19T02:38:31;2.67;;;1.30;;
5971;SDS011;3012;49.944;8.454;2023-09-19T02:41:00;2.03;;;0.93;;
5971;SDS011;3012;49.944;8.454;2023-09-19T02:43:28;1.85;;;1.17;;
5971;SDS011;3012;49.944;8.454;2023-09-19T02:45:58;3.03;;;0.63;;
5971;SDS011;3012;49.944;8.454;2023-09-19T02:48:26;2.40;;;0.98;;
5971;SDS011;3012;49.944;8.454;2023-09-19T02:50:55;5.20;;;1.27;;
5971;SDS011;3012;49.944;8.454;2023-09-19T02:53:23;0.98;;;0.75;;
5971;SDS011;3012;49.944;8.454;2023-09-19T02:55:51;2.40;;;1.00;;
5971;SDS011;3012;49.944;8.454;2023-09-19T02:58:20;3.40;;;1.25;;
5971;SDS011;3012;49.944;8.454;2023-09-19T03:00:51;2.72;;;1.20;;
5971;SDS011;3012;49.944;8.454;2023-09-19T03:03:23;1.67;;;1.15;;
5971;SDS011;3012;49.944;8.454;2023-09-19T03:05:51;1.13;;;0.88;;
5971;SDS011;3012;49.944;8.454;2023-09-19T03:08:21;3.65;;;0.90;;
5971;SDS011;3012;49.944;8.454;2023-09-19T03:10:49;2.10;;;1.20;;
5971;SDS011;3012;49.944;8.454;2023-09-19T03:13:17;1.23;;;1.13;;
5971;SDS011;3012;49.944;8.454;2023-09-19T03:15:46;2.22;;;1.25;;
5971;SDS011;3012;49.944;8.454;2023-09-19T03:18:17;1.08;;;0.70;;
5971;SDS011;3012;49.944;8.454;2023-09-19T03:20:54;7.88;;;0.70;;
5971;SDS011;3012;49.944;8.454;2023-09-19T03:23:22;1.27;;;1.02;;
5971;SDS011;3012;49.944;8.454;2023-09-19T03:25:52;1.10;;;1.05;;
5971;SDS011;3012;49.944;8.454;2023-09-19T03:28:21;1.58;;;1.02;;
5971;SDS011;3012;49.944;8.454;2023-09-19T03:30:59;1.05;;;0.98;;
5971;SDS011;3012;49.944;8.454;2023-09-19T03:33:28;1.20;;;1.00;;
5971;SDS011;3012;49.944;8.454;2023-09-19T03:35:59;3.75;;;1.13;;
5971;SDS011;3012;49.944;8.454;2023-09-19T03:38:31;1.17;;;1.00;;
5971;SDS011;3012;49.944;8.454;2023-09-19T03:40:59;1.00;;;1.00;;
5971;SDS011;3012;49.944;8.454;2023-09-19T03:43:28;4.93;;;0.75;;
5971;SDS011;3012;49.944;8.454;2023-09-19T03:45:56;0.95;;;0.73;;
5971;SDS011;3012;49.944;8.454;2023-09-19T03:48:24;0.85;;;0.60;;
5971;SDS011;3012;49.944;8.454;2023-09-19T03:50:52;3.25;;;0.93;;
5971;SDS011;3012;49.944;8.454;2023-09-19T03:53:24;2.47;;;0.82;;
5971;SDS011;3012;49.944;8.454;2023-09-19T03:55:52;3.50;;;1.20;;
5971;SDS011;3012;49.944;8.454;2023-09-19T03:58:20;2.45;;;0.80;;
5971;SDS011;3012;49.944;8.454;2023-09-19T04:00:48;2.40;;;0.88;;
5971;SDS011;3012;49.944;8.454;2023-09-19T04:03:16;2.60;;;0.90;;
5971;SDS011;3012;49.944;8.454;2023-09-19T04:05:47;0.60;;;0.60;;
5971;SDS011;3012;49.944;8.454;2023-09-19T04:08:16;2.72;;;1.00;;
5971;SDS011;3012;49.944;8.454;2023-09-19T04:10:45;1.27;;;0.82;;
5971;SDS011;3012;49.944;8.454;2023-09-19T04:13:13;1.42;;;0.95;;
5971;SDS011;3012;49.944;8.454;2023-09-19T04:15:41;3.95;;;0.98;;
5971;SDS011;3012;49.944;8.454;2023-09-19T04:18:09;1.20;;;1.20;;
5971;SDS011;3012;49.944;8.454;2023-09-19T04:20:38;2.40;;;1.17;;
5971;SDS011;3012;49.944;8.454;2023-09-19T04:23:06;2.50;;;1.30;;
5971;SDS011;3012;49.944;8.454;2023-09-19T04:25:34;3.03;;;1.20;;
5971;SDS011;3012;49.944;8.454;2023-09-19T04:28:05;1.23;;;0.73;;
5971;SDS011;3012;49.944;8.454;2023-09-19T04:30:33;3.75;;;0.95;;
5971;SDS011;3012;49.944;8.454;2023-09-19T04:33:01;1.30;;;0.80;;
5971;SDS011;3012;49.944;8.454;2023-09-19T04:35:33;0.77;;;0.77;;
5971;SDS011;3012;49.944;8.454;2023-09-19T04:38:01;2.05;;;1.30;;
5971;SDS011;3012;49.944;8.454;2023-09-19T04:40:29;1.10;;;0.80;;
5971;SDS011;3012;49.944;8.454;2023-09-19T04:42:58;3.65;;;1.00;;
5971;SDS011;3012;49.944;8.454;2023-09-19T04:45:27;3.03;;;0.80;;
5971;SDS011;3012;49.944;8.454;2023-09-19T04:47:56;4.70;;;0.98;;
5971;SDS011;3012;49.944;8.454;2023-09-19T04:50:24;0.90;;;0.47;;
5971;SDS011;3012;49.944;8.454;2023-09-19T04:52:54;2.72;;;1.00;;
5971;SDS011;3012;49.944;8.454;2023-09-19T04:55:22;1.10;;;0.65;;
5971;SDS011;3012;49.944;8.454;2023-09-19T04:57:50;2.83;;;1.05;;
5971;SDS011;3012;49.944;8.454;2023-09-19T05:00:20;2.60;;;0.80;;
5971;SDS011;3012;49.944;8.454;2023-09-19T05:02:52;4.80;;;0.90;;
5971;SDS011;3012;49.944;8.454;2023-09-19T05:05:23;2.53;;;0.80;;
5971;SDS011;3012;49.944;8.454;2023-09-19T05:07:52;1.23;;;0.65;;
5971;SDS011;3012;49.944;8.454;2023-09-19T05:10:22;3.75;;;1.00;;
5971;SDS011;3012;49.944;8.454;2023-09-19T05:12:52;3.03;;;1.13;;
5971;SDS011;3012;49.944;8.454;2023-09-19T05:15:21;3.33;;;0.80;;
5971;SDS011;3012;49.944;8.454;2023-09-19T05:17:49;2.47;;;0.80;;
5971;SDS011;3012;49.944;8.454;2023-09-19T05:20:24;4.68;;;0.85;;
5971;SDS011;3012;49.944;8.454;2023-09-19T05:22:59;2.42;;;0.95;;
5971;SDS011;3012;49.944;8.454;2023-09-19T05:25:28;2.20;;;1.15;;
5971;SDS011;3012;49.944;8.454;2023-09-19T05:27:58;3.50;;;1.08;;
5971;SDS011;3012;49.944;8.454;2023-09-19T05:30:29;3.13;;;1.17;;
5971;SDS011;3012;49.944;8.454;2023-09-19T05:32:59;1.58;;;1.13;;
5971;SDS011;3012;49.944;8.454;2023-09-19T05:35:28;2.47;;;1.10;;
5971;SDS011;3012;49.944;8.454;2023-09-19T05:37:56;3.20;;;1.52;;
5971;SDS011;3012;49.944;8.454;2023-09-19T05:40:24;2.78;;;1.50;;
5971;SDS011;3012;49.944;8.454;2023-09-19T05:42:53;3.80;;;1.42;;
5971;SDS011;3012;49.944;8.454;2023-09-19T05:45:21;3.60;;;1.48;;
5971;SDS011;3012;49.944;8.454;2023-09-19T05:47:49;5.32;;;2.05;;
5971;SDS011;3012;49.944;8.454;2023-09-19T05:50:21;2.25;;;1.45;;
5971;SDS011;3012;49.944;8.454;2023-09-19T05:52:53;2.70;;;2.17;;
5971;SDS011;3012;49.944;8.454;2023-09-19T05:55:22;6.03;;;1.88;;
5971;SDS011;3012;49.944;8.454;2023-09-19T05:57:51;3.03;;;2.15;;
5971;SDS011;3012;49.944;8.454;2023-09-19T06:00:21;4.50;;;2.05;;
5971;SDS011;3012;49.944;8.454;2023-09-19T06:02:50;5.97;;;2.25;;
5971;SDS011;3012;49.944;8.454;2023-09-19T06:05:20;1.95;;;1.90;;
5971;SDS011;3012;49.944;8.454;2023-09-19T06:07:49;2.55;;;1.83;;
5971;SDS011;3012;49.944;8.454;2023-09-19T06:10:18;2.65;;;1.90;;
5971;SDS011;3012;49.944;8.454;2023-09-19T06:12:49;2.55;;;1.85;;
5971;SDS011;3012;49.944;8.454;2023-09-19T06:15:17;2.42;;;2.33;;
5971;SDS011;3012;49.944;8.454;2023-09-19T06:17:48;2.63;;;2.03;;
5971;SDS011;3012;49.944;8.454;2023-09-19T06:20:16;3.47;;;1.98;;
5971;SDS011;3012;49.944;8.454;2023-09-19T06:22:47;3.50;;;2.22;;
5971;SDS011;3012;49.944;8.454;2023-09-19T06:25:16;2.08;;;1.70;;
5971;SDS011;3012;49.944;8.454;2023-09-19T06:27:46;4.00;;;2.03;;
5971;SDS011;3012;49.944;8.454;2023-09-19T06:30:15;5.70;;;2.30;;
5971;SDS011;3012;49.944;8.454;2023-09-19T06:32:44;3.55;;;2.13;;
5971;SDS011;3012;49.944;8.454;2023-09-19T06:35:13;1.65;;;1.55;;
5971;SDS011;3012;49.944;8.454;2023-09-19T06:37:42;6.60;;;1.52;;
5971;SDS011;3012;49.944;8.454;2023-09-19T06:40:12;3.45;;;1.02;;
5971;SDS011;3012;49.944;8.454;2023-09-19T06:42:42;2.38;;;1.13;;
5971;SDS011;3012;49.944;8.454;2023-09-19T06:45:11;4.03;;;1.13;;
5971;SDS011;3012;49.944;8.454;2023-09-19T06:47:44;1.75;;;1.08;;
5971;SDS011;3012;49.944;8.454;2023-09-19T06:50:16;2.63;;;1.20;;
5971;SDS011;3012;49.944;8.454;2023-09-19T06:52:45;1.42;;;0.85;;
5971;SDS011;3012;49.944;8.454;2023-09-19T06:55:18;2.60;;;1.75;;
5971;SDS011;3012;49.944;8.454;2023-09-19T06:57:47;2.85;;;1.20;;
5971;SDS011;3012;49.944;8.454;2023-09-19T07:00:15;3.80;;;1.25;;
5971;SDS011;3012;49.944;8.454;2023-09-19T07:02:45;4.25;;;1.77;;
5971;SDS011;3012;49.944;8.454;2023-09-19T07:05:21;8.65;;;1.95;;
5971;SDS011;3012;49.944;8.454;2023-09-19T07:07:49;9.52;;;5.43;;
5971;SDS011;3012;49.944;8.454;2023-09-19T07:10:19;6.00;;;1.50;;
5971;SDS011;3012;49.944;8.454;2023-09-19T07:12:54;6.45;;;1.52;;
5971;SDS011;3012;49.944;8.454;2023-09-19T07:15:23;3.80;;;1.80;;
5971;SDS011;3012;49.944;8.454;2023-09-19T07:17:51;2.83;;;1.50;;
5971;SDS011;3012;49.944;8.454;2023-09-19T07:20:20;3.35;;;0.90;;
5971;SDS011;3012;49.944;8.454;2023-09-19T07:22:49;1.70;;;1.13;;
5971;SDS011;3012;49.944;8.454;2023-09-19T07:25:19;2.28;;;0.98;;
5971;SDS011;3012;49.944;8.454;2023-09-19T07:27:47;1.88;;;0.95;;
5971;SDS011;3012;49.944;8.454;2023-09-19T07:30:15;5.40;;;1.35;;
5971;SDS011;3012;49.944;8.454;2023-09-19T07:32:43;2.08;;;0.85;;
5971;SDS011;3012;49.944;8.454;2023-09-19T07:35:11;3.25;;;0.65;;
5971;SDS011;3012;49.944;8.454;2023-09-19T07:37:39;0.93;;;0.93;;
5971;SDS011;3012;49.944;8.454;2023-09-19T07:40:08;6.30;;;0.98;;
5971;SDS011;3012;49.944;8.454;2023-09-19T07:42:39;1.25;;;0.65;;
5971;SDS011;3012;49.944;8.454;2023-09-19T07:45:07;3.38;;;0.70;;
5971;SDS011;3012;49.944;8.454;2023-09-19T07:47:40;2.00;;;0.47;;
5971;SDS011;3012;49.944;8.454;2023-09-19T07:50:11;2.55;;;0.70;;
5971;SDS011;3012;49.944;8.454;2023-09-19T07:52:39;3.28;;;0.63;;
5971;SDS011;3012;49.944;8.454;2023-09-19T07:55:07;1.98;;;0.60;;
5971;SDS011;3012;49.944;8.454;2023-09-19T07:57:39;3.58;;;0.80;;
5971;SDS011;3012;49.944;8.454;2023-09-19T08:00:07;5.20;;;0.98;;
5971;SDS011;3012;49.944;8.454;2023-09-19T08:02:38;3.90;;;0.50;;
5971;SDS011;3012;49.944;8.454;2023-09-19T08:05:08;5.05;;;0.85;;
5971;SDS011;3012;49.944;8.454;2023-09-19T08:07:38;3.10;;;0.93;;
5971;SDS011;3012;49.944;8.454;2023-09-19T08:10:07;3.50;;;0.77;;
5971;SDS011;3012;49.944;8.454;2023-09-19T08:12:41;1.55;;;0.52;;
5971;SDS011;3012;49.944;8.454;2023-09-19T08:15:13;2.15;;;0.50;;
5971;SDS011;3012;49.944;8.454;2023-09-19T08:17:41;2.13;;;0.80;;
5971;SDS011;3012;49.944;8.454;2023-09-19T08:20:10;1.58;;;0.65;;
5971;SDS011;3012;49.944;8.454;2023-09-19T08:22:43;3.63;;;0.68;;
5971;SDS011;3012;49.944;8.454;2023-09-19T08:25:14;2.42;;;0.90;;
5971;SDS011;3012;49.944;8.454;2023-09-19T08:27:46;2.38;;;0.45;;
5971;SDS011;3012;49.944;8.454;2023-09-19T08:30:15;4.40;;;0.70;;
5971;SDS011;3012;49.944;8.454;2023-09-19T08:32:46;2.17;;;0.50;;
5971;SDS011;3012;49.944;8.454;2023-09-19T08:35:14;1.20;;;0.75;;
5971;SDS011;3012;49.944;8.454;2023-09-19T08:37:42;0.82;;;0.57;;
5971;SDS011;3012;49.944;8.454;2023-09-19T08:40:12;7.75;;;1.20;;
5971;SDS011;3012;49.944;8.454;2023-09-19T08:42:48;5.50;;;0.70;;
5971;SDS011;3012;49.944;8.454;2023-09-19T08:45:17;1.08;;;0.65;;
5971;SDS011;3012;49.944;8.454;2023-09-19T08:47:46;3.67;;;0.82;;
5971;SDS011;3012;49.944;8.454;2023-09-19T08:50:19;4.25;;;0.57;;
5971;SDS011;3012;49.944;8.454;2023-09-19T08:52:52;4.03;;;0.52;;
5971;SDS011;3012;49.944;8.454;2023-09-19T08:55:23;6.88;;;0.90;;
5971;SDS011;3012;49.944;8.454;2023-09-19T08:57:59;2.75;;;0.93;;
5971;SDS011;3012;49.944;8.454;2023-09-19T09:00:30;3.45;;;0.98;;
5971;SDS011;3012;49.944;8.454;2023-09-19T09:02:59;4.25;;;1.10;;
5971;SDS011;3012;49.944;8.454;2023-09-19T09:05:30;2.90;;;0.75;;
5971;SDS011;3012;49.944;8.454;2023-09-19T09:08:00;4.43;;;0.80;;
5971;SDS011;3012;49.944;8.454;2023-09-19T09:10:30;3.90;;;0.88;;
5971;SDS011;3012;49.944;8.454;2023-09-19T09:12:59;4.43;;;0.70;;
5971;SDS011;3012;49.944;8.454;2023-09-19T09:15:29;10.40;;;0.85;;
5971;SDS011;3012;49.944;8.454;2023-09-19T09:17:59;1.75;;;0.65;;
5971;SDS011;3012;49.944;8.454;2023-09-19T09:20:27;7.45;;;1.10;;
5971;SDS011;3012;49.944;8.454;2023-09-19T09:22:55;5.10;;;0.98;;
5971;SDS011;3012;49.944;8.454;2023-09-19T09:28:23;2.40;;;0.68;;
5971;SDS011;3012;49.944;8.454;2023-09-19T09:30:53;5.00;;;1.02;;
5971;SDS011;3012;49.944;8.454;2023-09-19T09:33:21;5.75;;;0.80;;
5971;SDS011;3012;49.944;8.454;2023-09-19T09:35:50;3.63;;;0.70;;
5971;SDS011;3012;49.944;8.454;2023-09-19T09:38:20;6.03;;;1.10;;
5971;SDS011;3012;49.944;8.454;2023-09-19T09:40:52;1.33;;;0.75;;
5971;SDS011;3012;49.944;8.454;2023-09-19T09:43:31;4.05;;;0.93;;
5971;SDS011;3012;49.944;8.454;2023-09-19T09:46:09;1.75;;;0.77;;
5971;SDS011;3012;49.944;8.454;2023-09-19T09:49:09;3.15;;;0.88;;
5971;SDS011;3012;49.944;8.454;2023-09-19T09:51:48;4.97;;;0.82;;
5971;SDS011;3012;49.944;8.454;2023-09-19T09:54:26;1.65;;;0.85;;
5971;SDS011;3012;49.944;8.454;2023-09-19T09:57:02;3.60;;;1.08;;
5971;SDS011;3012;49.944;8.454;2023-09-19T09:59:45;3.08;;;1.20;;
5971;SDS011;3012;49.944;8.454;2023-09-19T10:02:16;3.20;;;0.70;;
5971;SDS011;3012;49.944;8.454;2023-09-19T10:04:51;7.18;;;0.82;;
5971;SDS011;3012;49.944;8.454;2023-09-19T10:07:26;3.78;;;1.13;;
5971;SDS011;3012;49.944;8.454;2023-09-19T10:09:59;4.22;;;0.43;;
5971;SDS011;3012;49.944;8.454;2023-09-19T10:12:39;5.72;;;1.20;;
5971;SDS011;3012;49.944;8.454;2023-09-19T10:15:11;9.40;;;0.95;;
5971;SDS011;3012;49.944;8.454;2023-09-19T10:17:42;1.98;;;0.70;;
5971;SDS011;3012;49.944;8.454;2023-09-19T10:20:13;3.72;;;0.75;;
5971;SDS011;3012;49.944;8.454;2023-09-19T10:23:04;6.03;;;1.00;;
5971;SDS011;3012;49.944;8.454;2023-09-19T10:25:40;4.75;;;0.90;;
5971;SDS011;3012;49.944;8.454;2023-09-19T10:28:09;4.63;;;1.17;;
5971;SDS011;3012;49.944;8.454;2023-09-19T10:30:42;5.18;;;1.50;;
5971;SDS011;3012;49.944;8.454;2023-09-19T10:33:13;4.68;;;1.00;;
5971;SDS011;3012;49.944;8.454;2023-09-19T10:35:43;4.28;;;1.13;;
5971;SDS011;3012;49.944;8.454;2023-09-19T10:38:13;7.85;;;0.88;;
5971;SDS011;3012;49.944;8.454;2023-09-19T10:40:47;2.65;;;1.10;;
5971;SDS011;3012;49.944;8.454;2023-09-19T10:43:18;4.10;;;1.52;;
5971;SDS011;3012;49.944;8.454;2023-09-19T10:45:49;8.30;;;1.52;;
5971;SDS011;3012;49.944;8.454;2023-09-19T10:48:19;5.15;;;1.15;;
5971;SDS011;3012;49.944;8.454;2023-09-19T10:50:55;2.05;;;0.80;;
5971;SDS011;3012;49.944;8.454;2023-09-19T10:53:32;5.50;;;0.93;;
5971;SDS011;3012;49.944;8.454;2023-09-19T10:56:10;5.47;;;1.13;;
5971;SDS011;3012;49.944;8.454;2023-09-19T10:58:44;6.93;;;1.00;;
5971;SDS011;3012;49.944;8.454;2023-09-19T11:01:13;3.20;;;0.70;;
5971;SDS011;3012;49.944;8.454;2023-09-19T11:03:42;7.15;;;0.90;;
5971;SDS011;3012;49.944;8.454;2023-09-19T11:06:12;3.17;;;1.10;;
5971;SDS011;3012;49.944;8.454;2023-09-19T11:08:56;4.10;;;1.00;;
5971;SDS011;3012;49.944;8.454;2023-09-19T11:11:47;6.53;;;1.02;;
5971;SDS011;3012;49.944;8.454;2023-09-19T11:14:30;7.22;;;1.02;;
5971;SDS011;3012;49.944;8.454;2023-09-19T11:17:31;3.40;;;1.15;;
5971;SDS011;3012;49.944;8.454;2023-09-19T11:23:19;6.03;;;1.10;;
5971;SDS011;3012;49.944;8.454;2023-09-19T11:25:53;3.00;;;1.15;;
5971;SDS011;3012;49.944;8.454;2023-09-19T11:28:27;2.88;;;0.90;;
5971;SDS011;3012;49.944;8.454;2023-09-19T11:40:37;4.85;;;0.63;;
5971;SDS011;3012;49.944;8.454;2023-09-19T11:46:05;5.25;;;0.80;;
5971;SDS011;3012;49.944;8.454;2023-09-19T11:48:34;5.07;;;0.90;;
5971;SDS011;3012;49.944;8.454;2023-09-19T11:51:13;2.33;;;1.00;;
5971;SDS011;3012;49.944;8.454;2023-09-19T11:53:46;1.33;;;0.88;;
5971;SDS011;3012;49.944;8.454;2023-09-19T11:56:17;5.57;;;1.10;;
5971;SDS011;3012;49.944;8.454;2023-09-19T11:58:49;3.25;;;0.75;;
5971;SDS011;3012;49.944;8.454;2023-09-19T12:01:21;3.95;;;1.17;;
5971;SDS011;3012;49.944;8.454;2023-09-19T12:03:54;4.03;;;0.90;;
5971;SDS011;3012;49.944;8.454;2023-09-19T12:06:26;2.00;;;0.70;;
5971;SDS011;3012;49.944;8.454;2023-09-19T12:08:56;1.80;;;0.55;;
5971;SDS011;3012;49.944;8.454;2023-09-19T12:11:27;2.95;;;0.85;;
5971;SDS011;3012;49.944;8.454;2023-09-19T12:14:00;0.82;;;0.63;;
5971;SDS011;3012;49.944;8.454;2023-09-19T12:16:30;1.15;;;0.57;;
5971;SDS011;3012;49.944;8.454;2023-09-19T12:19:17;2.17;;;0.70;;
5971;SDS011;3012;49.944;8.454;2023-09-19T12:21:55;1.90;;;0.65;;
5971;SDS011;3012;49.944;8.454;2023-09-19T12:24:26;3.05;;;0.63;;
5971;SDS011;3012;49.944;8.454;2023-09-19T12:26:59;1.88;;;0.55;;
5971;SDS011;3012;49.944;8.454;2023-09-19T12:29:30;4.55;;;0.88;;
5971;SDS011;3012;49.944;8.454;2023-09-19T12:32:00;1.15;;;0.52;;
5971;SDS011;3012;49.944;8.454;2023-09-19T12:34:32;2.20;;;0.52;;
5971;SDS011;3012;49.944;8.454;2023-09-19T12:37:07;3.60;;;0.75;;
5971;SDS011;3012;49.944;8.454;2023-09-19T12:39:39;2.13;;;0.73;;
5971;SDS011;3012;49.944;8.454;2023-09-19T12:42:09;1.23;;;0.82;;
5971;SDS011;3012;49.944;8.454;2023-09-19T12:44:40;2.28;;;1.00;;
5971;SDS011;3012;49.944;8.454;2023-09-19T12:47:14;3.13;;;0.90;;
5971;SDS011;3012;49.944;8.454;2023-09-19T12:50:06;3.25;;;0.68;;
5971;SDS011;3012;49.944;8.454;2023-09-19T12:52:41;2.33;;;0.73;;
5971;SDS011;3012;49.944;8.454;2023-09-19T12:55:21;0.88;;;0.50;;
5971;SDS011;3012;49.944;8.454;2023-09-19T12:58:00;2.42;;;0.55;;
5971;SDS011;3012;49.944;8.454;2023-09-19T13:00:37;1.80;;;0.85;;
5971;SDS011;3012;49.944;8.454;2023-09-19T13:03:14;1.33;;;0.75;;
5971;SDS011;3012;49.944;8.454;2023-09-19T13:05:47;1.90;;;0.47;;
5971;SDS011;3012;49.944;8.454;2023-09-19T13:08:23;2.25;;;0.77;;
5971;SDS011;3012;49.944;8.454;2023-09-19T13:11:04;1.58;;;0.60;;
5971;SDS011;3012;49.944;8.454;2023-09-19T13:13:39;3.42;;;0.65;;
5971;SDS011;3012;49.944;8.454;2023-09-19T13:16:14;3.00;;;0.57;;
5971;SDS011;3012;49.944;8.454;2023-09-19T13:18:46;3.90;;;0.63;;
5971;SDS011;3012;49.944;8.454;2023-09-19T13:21:17;6.13;;;0.68;;
5971;SDS011;3012;49.944;8.454;2023-09-19T13:24:01;2.85;;;0.80;;
5971;SDS011;3012;49.944;8.454;2023-09-19T13:26:52;0.73;;;0.40;;
5971;SDS011;3012;49.944;8.454;2023-09-19T13:29:20;1.35;;;0.80;;
5971;SDS011;3012;49.944;8.454;2023-09-19T13:31:48;1.35;;;0.57;;
5971;SDS011;3012;49.944;8.454;2023-09-19T13:34:19;1.83;;;0.75;;
5971;SDS011;3012;49.944;8.454;2023-09-19T13:36:47;0.80;;;0.50;;
5971;SDS011;3012;49.944;8.454;2023-09-19T13:39:16;2.03;;;0.57;;
5971;SDS011;3012;49.944;8.454;2023-09-19T13:41:46;2.53;;;0.65;;
5971;SDS011;3012;49.944;8.454;2023-09-19T13:44:15;1.40;;;0.65;;
5971;SDS011;3012;49.944;8.454;2023-09-19T13:46:44;2.40;;;0.50;;
5971;SDS011;3012;49.944;8.454;2023-09-19T13:49:13;1.27;;;0.60;;
5971;SDS011;3012;49.944;8.454;2023-09-19T13:51:42;1.33;;;0.60;;
5971;SDS011;3012;49.944;8.454;2023-09-19T13:54:11;2.05;;;0.43;;
5971;SDS011;3012;49.944;8.454;2023-09-19T13:56:40;5.85;;;0.82;;
5971;SDS011;3012;49.944;8.454;2023-09-19T13:59:09;1.13;;;0.60;;
5971;SDS011;3012;49.944;8.454;2023-09-19T14:01:37;2.75;;;0.38;;
5971;SDS011;3012;49.944;8.454;2023-09-19T14:04:06;2.15;;;0.40;;
5971;SDS011;3012;49.944;8.454;2023-09-19T14:06:34;3.58;;;0.50;;
5971;SDS011;3012;49.944;8.454;2023-09-19T14:09:03;1.23;;;0.68;;
5971;SDS011;3012;49.944;8.454;2023-09-19T14:11:31;1.00;;;0.38;;
5971;SDS011;3012;49.944;8.454;2023-09-19T14:14:00;2.30;;;0.70;;
5971;SDS011;3012;49.944;8.454;2023-09-19T14:16:29;2.53;;;0.45;;
5971;SDS011;3012;49.944;8.454;2023-09-19T14:18:57;1.88;;;0.55;;
5971;SDS011;3012;49.944;8.454;2023-09-19T14:21:26;1.67;;;0.47;;
5971;SDS011;3012;49.944;8.454;2023-09-19T14:23:54;1.05;;;0.40;;
5971;SDS011;3012;49.944;8.454;2023-09-19T14:26:22;3.20;;;0.40;;
5971;SDS011;3012;49.944;8.454;2023-09-19T14:28:50;2.40;;;0.50;;
5971;SDS011;3012;49.944;8.454;2023-09-19T14:31:18;3.88;;;0.30;;
5971;SDS011;3012;49.944;8.454;2023-09-19T14:33:54;3.47;;;0.57;;
5971;SDS011;3012;49.944;8.454;2023-09-19T14:36:23;3.47;;;0.68;;
5971;SDS011;3012;49.944;8.454;2023-09-19T14:38:52;0.52;;;0.40;;
5971;SDS011;3012;49.944;8.454;2023-09-19T14:41:24;0.95;;;0.80;;
5971;SDS011;3012;49.944;8.454;2023-09-19T14:43:52;1.10;;;0.50;;
5971;SDS011;3012;49.944;8.454;2023-09-19T14:46:21;0.85;;;0.28;;
5971;SDS011;3012;49.944;8.454;2023-09-19T14:48:51;1.02;;;0.60;;
5971;SDS011;3012;49.944;8.454;2023-09-19T14:51:20;1.52;;;0.50;;
5971;SDS011;3012;49.944;8.454;2023-09-19T14:53:48;2.20;;;0.47;;
5971;SDS011;3012;49.944;8.454;2023-09-19T14:56:16;0.68;;;0.32;;
5971;SDS011;3012;49.944;8.454;2023-09-19T14:58:46;0.73;;;0.30;;
5971;SDS011;3012;49.944;8.454;2023-09-19T15:01:14;1.92;;;0.47;;
5971;SDS011;3012;49.944;8.454;2023-09-19T15:03:43;1.50;;;0.80;;
5971;SDS011;3012;49.944;8.454;2023-09-19T15:06:13;2.17;;;0.65;;
5971;SDS011;3012;49.944;8.454;2023-09-19T15:08:45;1.65;;;0.35;;
5971;SDS011;3012;49.944;8.454;2023-09-19T15:11:15;1.20;;;0.30;;
5971;SDS011;3012;49.944;8.454;2023-09-19T15:13:44;2.00;;;0.45;;
5971;SDS011;3012;49.944;8.454;2023-09-19T15:16:14;1.05;;;0.50;;
5971;SDS011;3012;49.944;8.454;2023-09-19T15:18:42;1.60;;;0.60;;
5971;SDS011;3012;49.944;8.454;2023-09-19T15:21:14;1.75;;;0.47;;
5971;SDS011;3012;49.944;8.454;2023-09-19T15:23:42;1.95;;;0.70;;
5971;SDS011;3012;49.944;8.454;2023-09-19T15:26:13;1.30;;;0.60;;
5971;SDS011;3012;49.944;8.454;2023-09-19T15:28:47;4.05;;;0.60;;
5971;SDS011;3012;49.944;8.454;2023-09-19T15:31:15;1.10;;;0.30;;
5971;SDS011;3012;49.944;8.454;2023-09-19T15:33:44;0.73;;;0.40;;
5971;SDS011;3012;49.944;8.454;2023-09-19T15:36:12;0.70;;;0.30;;
5971;SDS011;3012;49.944;8.454;2023-09-19T15:38:57;2.58;;;0.40;;
5971;SDS011;3012;49.944;8.454;2023-09-19T15:41:27;0.73;;;0.57;;
5971;SDS011;3012;49.944;8.454;2023-09-19T15:43:56;3.03;;;0.60;;
5971;SDS011;3012;49.944;8.454;2023-09-19T15:46:28;2.38;;;0.47;;
5971;SDS011;3012;49.944;8.454;2023-09-19T15:48:57;3.50;;;0.30;;
5971;SDS011;3012;49.944;8.454;2023-09-19T15:51:26;0.95;;;0.30;;
5971;SDS011;3012;49.944;8.454;2023-09-19T15:53:56;0.50;;;0.40;;
5971;SDS011;3012;49.944;8.454;2023-09-19T15:56:26;2.47;;;0.40;;
5971;SDS011;3012;49.944;8.454;2023-09-19T15:58:55;3.20;;;0.30;;
5971;SDS011;3012;49.944;8.454;2023-09-19T16:01:23;4.72;;;0.60;;
5971;SDS011;3012;49.944;8.454;2023-09-19T16:03:52;0.40;;;0.30;;
5971;SDS011;3012;49.944;8.454;2023-09-19T16:06:22;2.05;;;0.50;;
5971;SDS011;3012;49.944;8.454;2023-09-19T16:08:52;4.05;;;0.40;;
5971;SDS011;3012;49.944;8.454;2023-09-19T16:11:24;2.45;;;0.30;;
5971;SDS011;3012;49.944;8.454;2023-09-19T16:13:53;2.40;;;0.40;;
5971;SDS011;3012;49.944;8.454;2023-09-19T16:16:22;1.23;;;0.40;;
5971;SDS011;3012;49.944;8.454;2023-09-19T16:18:51;0.60;;;0.38;;
5971;SDS011;3012;49.944;8.454;2023-09-19T16:21:24;2.00;;;0.50;;
5971;SDS011;3012;49.944;8.454;2023-09-19T16:23:54;1.55;;;0.45;;
5971;SDS011;3012;49.944;8.454;2023-09-19T16:26:24;0.80;;;0.35;;
5971;SDS011;3012;49.944;8.454;2023-09-19T16:28:53;1.38;;;0.50;;
5971;SDS011;3012;49.944;8.454;2023-09-19T16:31:23;0.90;;;0.47;;
5971;SDS011;3012;49.944;8.454;2023-09-19T16:33:51;1.33;;;0.38;;
5971;SDS011;3012;49.944;8.454;2023-09-19T16:36:19;3.60;;;0.30;;
5971;SDS011;3012;49.944;8.454;2023-09-19T16:38:47;5.72;;;0.30;;
5971;SDS011;3012;49.944;8.454;2023-09-19T16:41:16;0.95;;;0.40;;
5971;SDS011;3012;49.944;8.454;2023-09-19T16:43:47;2.88;;;0.32;;
5971;SDS011;3012;49.944;8.454;2023-09-19T16:46:15;1.73;;;0.32;;
5971;SDS011;3012;49.944;8.454;2023-09-19T16:48:47;2.03;;;0.75;;
5971;SDS011;3012;49.944;8.454;2023-09-19T16:51:29;2.63;;;0.45;;
5971;SDS011;3012;49.944;8.454;2023-09-19T16:53:57;1.95;;;0.43;;
5971;SDS011;3012;49.944;8.454;2023-09-19T16:56:26;2.95;;;0.55;;
5971;SDS011;3012;49.944;8.454;2023-09-19T16:58:56;1.33;;;0.52;;
5971;SDS011;3012;49.944;8.454;2023-09-19T17:01:28;1.48;;;0.40;;